CYEK

Arviat Airport

Arviat, Canada
METAR CYEK 131014Z AUTO 15013KT 9SM -SN OVC005 M08/M09 A2932 RMK SLP930
Observed Flight Rules
Dec-13 @ 10:14 UTC (37 minutes ago) Instrument Flight Rules
Wind Visibility Clouds Conditions
150° at 13 knots 9 miles
  • Overcast at 500' AGL
  • Light Snow
Temperatures Readings
Current -8°C / 18°F
Dewpoint -9°C / 16°F
Humidity 93%
Altimeter 29.32" Hg
Pressure 993 hPa
Elevation 10
METAR CYEK 131014Z AUTO 15013KT 9SM -SN OVC005 M08/M09 A2932 RMK SLP930
Observed Flight Rules
Dec-13 @ 10:14 UTC
(37 minutes ago)
IFR
Wind Visibility
150° at 13 knots 9 miles
Clouds
  • Overcast at 500' AGL
Conditions
  • Light Snow
Temperature Dewpoint
-8°C / 18°F -9°C / 16°F
Humidity Altimeter Pressure
93% 29.32" Hg 993 hPa